createdAt,value
2023-03-02T00:04:24.498Z,0
2023-03-02T00:09:24.174Z,0
2023-03-02T00:14:21.789Z,0
2023-03-02T00:19:20.890Z,0
2023-03-02T00:24:21.466Z,0
2023-03-02T00:29:18.203Z,0
2023-03-02T00:34:18.070Z,0
2023-03-02T00:39:17.355Z,0
2023-03-02T00:44:17.157Z,0
2023-03-02T00:49:16.563Z,0
2023-03-02T00:54:16.421Z,0
2023-03-02T00:59:04.144Z,0
2023-03-02T01:04:04.451Z,0
2023-03-02T01:09:06.027Z,0
2023-03-02T01:14:01.556Z,0
2023-03-02T01:19:01.766Z,0
2023-03-02T01:24:00.745Z,0
2023-03-02T01:29:00.725Z,0
2023-03-02T01:33:58.103Z,0
2023-03-02T01:38:58.086Z,0
2023-03-02T01:43:57.201Z,0
2023-03-02T01:48:57.005Z,0
2023-03-02T01:53:58.849Z,0
2023-03-02T01:58:55.535Z,0
2023-03-02T02:03:55.291Z,0
2023-03-02T02:08:56.332Z,0
2023-03-02T02:13:53.765Z,0
2023-03-02T02:18:53.697Z,0
2023-03-02T02:23:52.692Z,0
2023-03-02T02:28:51.519Z,0
2023-03-02T02:33:51.376Z,0
2023-03-02T02:38:50.510Z,0
2023-03-02T02:43:50.587Z,0
2023-03-02T02:48:49.387Z,0
2023-03-02T02:53:50.419Z,0
2023-03-02T02:58:46.280Z,0
2023-03-02T03:03:46.474Z,0
2023-03-02T03:08:45.987Z,0
2023-03-02T03:13:45.491Z,0
2023-03-02T03:18:43.489Z,0
2023-03-02T03:23:43.312Z,0
2023-03-02T03:28:42.273Z,0
2023-03-02T03:33:42.945Z,0
2023-03-02T03:38:49.229Z,0
2023-03-02T03:43:48.973Z,0
2023-03-02T03:48:49.357Z,0
2023-03-02T03:53:47.240Z,0
2023-03-02T03:58:47.455Z,0
2023-03-02T04:00:15.002Z,0
2023-03-02T04:05:09.911Z,0
2023-03-02T04:10:08.474Z,0
2023-03-02T04:15:06.569Z,0
2023-03-02T04:20:05.762Z,0
2023-03-02T04:25:05.594Z,0
2023-03-02T04:30:03.969Z,0
2023-03-02T04:35:02.966Z,0
2023-03-02T04:40:02.623Z,0
2023-03-02T04:45:01.685Z,0
2023-03-02T04:50:01.429Z,0
2023-03-02T04:55:00.525Z,0
2023-03-02T04:59:20.971Z,0
2023-03-02T05:04:20.844Z,0
2023-03-02T05:09:18.869Z,0
2023-03-02T05:14:18.374Z,0
2023-03-02T05:19:17.471Z,0
2023-03-02T05:24:17.847Z,0
2023-03-02T05:29:16.927Z,0
2023-03-02T05:34:16.724Z,0
2023-03-02T05:39:16.650Z,0
2023-03-02T05:44:16.608Z,0
2023-03-02T05:49:18.287Z,0
2023-03-02T05:54:14.821Z,0
2023-03-02T05:59:01.171Z,0
2023-03-02T06:04:00.766Z,0
2023-03-02T06:09:00.290Z,0
2023-03-02T06:13:57.669Z,0
2023-03-02T06:18:57.706Z,0
2023-03-02T06:23:57.751Z,0
2023-03-02T06:28:57.218Z,0.01
2023-03-02T06:34:01.946Z,0.01
2023-03-02T06:38:55.520Z,0.01
2023-03-02T06:43:55.623Z,0.02
2023-03-02T06:48:54.189Z,0.02
2023-03-02T06:53:54.234Z,0.03
2023-03-02T06:58:53.407Z,0.03
2023-03-02T07:03:54.322Z,0.04
2023-03-02T07:08:51.333Z,0.04
2023-03-02T07:13:51.531Z,0.05
2023-03-02T07:18:50.790Z,0.06
2023-03-02T07:23:51.031Z,0.06
2023-03-02T07:28:50.402Z,0.07
2023-03-02T07:33:50.365Z,0.08
2023-03-02T07:38:50.653Z,0.09
2023-03-02T07:43:50.384Z,0.1
2023-03-02T07:48:52.023Z,0.1
2023-03-02T07:53:48.402Z,0.11
2023-03-02T07:58:48.891Z,0.12
2023-03-02T08:03:48.159Z,0.14
2023-03-02T08:08:48.766Z,0.15
2023-03-02T08:13:45.984Z,0.16
2023-03-02T08:18:46.325Z,0.17
2023-03-02T08:23:45.968Z,0.18
2023-03-02T08:33:44.028Z,0.2
2023-03-02T08:38:43.537Z,0.21
2023-03-02T08:43:42.826Z,0.23
2023-03-02T08:48:42.753Z,0.23
2023-03-02T08:53:49.924Z,0.24
2023-03-02T08:58:49.519Z,0.24
2023-03-02T09:03:49.800Z,0.26
2023-03-02T09:08:48.254Z,0.25
2023-03-02T09:13:48.562Z,0.26
2023-03-02T09:18:48.757Z,0.28
2023-03-02T09:23:49.725Z,0.29
2023-03-02T09:28:46.714Z,0.29
2023-03-02T09:33:47.165Z,0.28
2023-03-02T09:38:47.562Z,0.3
2023-03-02T09:43:44.615Z,0.33
2023-03-02T09:48:33.711Z,0.31
2023-03-02T09:53:33.820Z,0.33
2023-03-02T09:58:34.978Z,0.31
2023-03-02T10:03:32.040Z,0.34
2023-03-02T10:08:31.018Z,0.32
2023-03-02T10:13:30.964Z,0.33
2023-03-02T10:18:30.495Z,0.36
2023-03-02T10:23:29.872Z,0.34
2023-03-02T10:28:30.375Z,0.45
2023-03-02T10:33:30.113Z,0.43
2023-03-02T10:38:31.734Z,0.45
2023-03-02T10:43:28.008Z,0.47
2023-03-02T10:48:28.507Z,0.47
2023-03-02T10:53:28.256Z,0.48
2023-03-02T10:58:28.941Z,0.49
2023-03-02T10:59:51.060Z,0.49
2023-03-02T11:04:51.846Z,0.48
2023-03-02T11:09:49.905Z,0.46
2023-03-02T11:14:49.702Z,0.48
2023-03-02T11:19:49.082Z,0.49
2023-03-02T11:24:48.954Z,0.49
2023-03-02T11:29:49.168Z,0.48
2023-03-02T11:34:49.191Z,0.49
2023-03-02T11:39:58.324Z,0.5
2023-03-02T11:44:47.649Z,0.5
2023-03-02T11:49:47.353Z,0.48
2023-03-02T11:54:46.572Z,0.49
2023-03-02T11:59:14.015Z,0.48
2023-03-02T12:04:14.433Z,0.49
2023-03-02T12:09:12.455Z,0.49
2023-03-02T12:14:13.986Z,0.48
2023-03-02T12:19:14.960Z,0.47
2023-03-02T12:24:11.665Z,0.48
2023-03-02T12:29:11.762Z,0.47
2023-03-02T12:34:10.821Z,0.48
2023-03-02T12:39:11.141Z,0.46
2023-03-02T12:44:08.748Z,0.46
2023-03-02T12:49:13.514Z,0.45
2023-03-02T12:54:07.858Z,0.45
2023-03-02T12:58:53.709Z,0.43
2023-03-02T13:03:54.104Z,0.41
2023-03-02T13:08:53.529Z,0.41
2023-03-02T13:13:53.368Z,0.4
2023-03-02T13:18:52.698Z,0.39
2023-03-02T13:23:51.201Z,0.38
2023-03-02T13:28:50.276Z,0.37
2023-03-02T13:33:49.970Z,0.37
2023-03-02T13:38:49.066Z,0.36
2023-03-02T13:43:48.897Z,0.35
2023-03-02T13:48:55.141Z,0.34
2023-03-02T13:53:47.802Z,0.32
2023-03-02T13:58:47.260Z,0.31
2023-03-02T14:03:48.540Z,0.3
2023-03-02T14:08:44.871Z,0.29
2023-03-02T14:13:45.116Z,0.28
2023-03-02T14:18:44.432Z,0.27
2023-03-02T14:23:44.948Z,0.26
2023-03-02T14:28:41.627Z,0.25
2023-03-02T14:33:42.188Z,0.23
2023-03-02T14:38:51.396Z,0.22
2023-03-02T14:43:40.982Z,0.21
2023-03-02T14:48:49.113Z,0.2
2023-03-02T14:53:48.496Z,0.19
2023-03-02T14:58:48.705Z,0.17
2023-03-02T15:05:10.085Z,0.16
2023-03-02T15:10:09.541Z,0.15
2023-03-02T15:15:09.414Z,0.14
2023-03-02T15:20:06.906Z,0.13
2023-03-02T15:25:06.979Z,0.12
2023-03-02T15:30:05.791Z,0.11
2023-03-02T15:35:05.339Z,0.1
2023-03-02T15:40:05.512Z,0.09
2023-03-02T15:45:04.779Z,0.08
2023-03-02T15:50:04.734Z,0.08
2023-03-02T15:55:04.036Z,0.07
2023-03-02T15:59:25.904Z,0.06
2023-03-02T16:04:22.551Z,0.06
2023-03-02T16:09:22.813Z,0.05
2023-03-02T16:14:22.090Z,0.04
2023-03-02T16:19:22.559Z,0.04
2023-03-02T16:24:18.814Z,0.03
2023-03-02T16:29:18.808Z,0.03
2023-03-02T16:34:17.612Z,0.02
2023-03-02T16:39:18.031Z,0.02
2023-03-02T16:44:14.349Z,0.01
2023-03-02T16:49:14.387Z,0.01
2023-03-02T16:54:14.727Z,0.01
2023-03-02T16:59:10.371Z,0
2023-03-02T17:04:10.770Z,0
2023-03-02T17:09:13.332Z,0
2023-03-02T17:14:08.957Z,0
2023-03-02T17:19:09.584Z,0
2023-03-02T17:24:07.020Z,0
2023-03-02T17:29:05.796Z,0
2023-03-02T17:34:05.607Z,0
2023-03-02T17:39:05.505Z,0
2023-03-02T17:44:02.789Z,0
2023-03-02T17:49:03.049Z,0
2023-03-02T17:54:01.806Z,0
2023-03-02T17:58:48.900Z,0
2023-03-02T18:03:49.060Z,0
2023-03-02T18:08:47.882Z,0
2023-03-02T18:13:48.264Z,0
2023-03-02T18:18:47.362Z,0
2023-03-02T18:23:45.173Z,0
2023-03-02T18:28:45.005Z,0
2023-03-02T18:33:44.480Z,0
2023-03-02T18:38:44.249Z,0
2023-03-02T18:43:44.656Z,0
2023-03-02T18:48:43.839Z,0
2023-03-02T18:53:42.550Z,0
2023-03-02T18:58:42.608Z,0
2023-03-02T19:03:43.343Z,0
2023-03-02T19:08:49.688Z,0
2023-03-02T19:13:49.309Z,0
2023-03-02T19:18:49.520Z,0
2023-03-02T19:23:49.392Z,0
2023-03-02T19:28:46.834Z,0
2023-03-02T19:33:47.272Z,0
2023-03-02T19:38:46.105Z,0
2023-03-02T19:43:46.613Z,0
2023-03-02T19:48:46.526Z,0
2023-03-02T19:53:45.195Z,0
2023-03-02T19:58:44.503Z,0
2023-03-02T20:00:07.539Z,0
2023-03-02T20:05:07.525Z,0
2023-03-02T20:10:04.424Z,0
2023-03-02T20:15:04.976Z,0
2023-03-02T20:20:04.349Z,0
2023-03-02T20:25:04.135Z,0
2023-03-02T20:30:00.709Z,0
2023-03-02T20:35:00.718Z,0
2023-03-02T20:40:00.091Z,0
2023-03-02T20:44:59.848Z,0
2023-03-02T20:49:58.784Z,0
2023-03-02T20:54:58.353Z,0
2023-03-02T20:59:19.005Z,0
2023-03-02T21:04:18.404Z,0
2023-03-02T21:09:19.722Z,0
2023-03-02T21:14:15.817Z,0
2023-03-02T21:19:16.230Z,0
2023-03-02T21:24:15.194Z,0
2023-03-02T21:29:14.852Z,0
2023-03-02T21:34:15.332Z,0
2023-03-02T21:39:14.242Z,0
2023-03-02T21:44:14.634Z,0
2023-03-02T21:49:15.571Z,0
2023-03-02T21:54:11.843Z,0
2023-03-02T21:59:09.260Z,0
2023-03-02T22:04:08.043Z,0
2023-03-02T22:09:07.672Z,0
2023-03-02T22:14:05.171Z,0
2023-03-02T22:19:05.202Z,0
2023-03-02T22:24:05.182Z,0
2023-03-02T22:29:04.364Z,0
2023-03-02T22:34:03.896Z,0
2023-03-02T22:39:03.958Z,0
2023-03-02T22:44:03.461Z,0
2023-03-02T22:49:03.735Z,0
2023-03-02T22:54:04.534Z,0
2023-03-02T22:58:46.744Z,0
2023-03-02T23:03:47.074Z,0
2023-03-02T23:08:47.206Z,0
2023-03-02T23:13:46.321Z,0
2023-03-02T23:18:46.673Z,0
2023-03-02T23:23:45.616Z,0
2023-03-02T23:28:45.144Z,0
2023-03-02T23:33:46.123Z,0
2023-03-02T23:38:42.810Z,0
2023-03-02T23:43:43.525Z,0
2023-03-02T23:48:42.275Z,0
2023-03-02T23:53:42.107Z,0
2023-03-02T23:58:49.739Z,0
